Terminal Aerodrome Forecast
Issued by NWS

Home | Current Version | Previous Version | Text Only | Print | Product List | Glossary On
Versions: 1 2 3 4 5 6 7 8 9 10 11 12 13 14 15 16
000
FTPQ31 PGUM 010900 AAB
TAFPQ
TAF AMD
PKWA 010903Z 0109/0206 16010KT 6SM -RA SCT012 BKN035
      TEMPO 0109/0112 18010G20KT TSRA SCT011CB BKN025
     FM011400 14008KT P6SM VCSH SCT014 SCT030 BKN080=

USA.gov is the U.S. government's official web portal to all federal, state and local government web resources and services.